Time;durP1;ratioP1;P1;durP2;ratioP2;P2;SDS_P1;SDS_P2;PMS_P1;PMS_P2;Temp;Humidity;BMP_temperature;BMP_pressure;BME280_temperature;BME280_humidity;BME280_pressure;Samples;Min_cycle;Max_cycle;Signal;HPM_P1;HPM_P2
2023/06/25 00:02:16;;;;;;;8.00;7.23;;;16.60;91.10;;;;;;5050881;28;20467;-68
2023/06/25 00:04:44;;;;;;;7.43;6.67;;;16.70;93.90;;;;;;5051152;28;20436;-68
2023/06/25 00:07:12;;;;;;;11.93;7.40;;;16.60;91.70;;;;;;5051562;28;20449;-68
2023/06/25 00:09:51;;;;;;;10.37;7.30;;;16.50;90.80;;;;;;5051495;28;20442;-68
2023/06/25 00:12:19;;;;;;;7.53;6.80;;;16.60;92.60;;;;;;5050526;28;20547;-68
2023/06/25 00:14:48;;;;;;;7.97;7.17;;;16.60;93.20;;;;;;5050569;28;21068;-68
2023/06/25 00:17:17;;;;;;;9.70;6.50;;;16.50;95.20;;;;;;5050917;28;21040;-69
2023/06/25 00:19:46;;;;;;;8.40;6.60;;;16.40;93.40;;;;;;5051072;28;20452;-68
2023/06/25 00:22:14;;;;;;;7.37;6.07;;;16.40;93.00;;;;;;5049447;28;20467;-68
2023/06/25 00:24:42;;;;;;;8.33;7.27;;;16.40;92.60;;;;;;5038002;28;20511;-68
2023/06/25 00:27:10;;;;;;;7.00;6.40;;;16.40;92.80;;;;;;5050638;28;20443;-69
2023/06/25 00:29:38;;;;;;;6.97;6.37;;;16.30;94.80;;;;;;5050263;28;20538;-68
2023/06/25 00:32:09;;;;;;;8.50;7.60;;;16.20;96.30;;;;;;5050321;28;20463;-68
2023/06/25 00:34:41;;;;;;;7.40;6.80;;;16.10;96.00;;;;;;5049665;28;20480;-68
2023/06/25 00:37:16;;;;;;;6.40;5.80;;;16.00;96.50;;;;;;5050909;28;20443;-68
2023/06/25 00:39:45;;;;;;;7.50;6.80;;;16.00;97.80;;;;;;5050368;28;20471;-68
2023/06/25 00:42:13;;;;;;;7.43;6.83;;;15.90;97.80;;;;;;5049737;28;20977;-68
2023/06/25 00:44:42;;;;;;;7.70;6.93;;;15.80;98.40;;;;;;5049455;28;20463;-67
2023/06/25 00:47:13;;;;;;;7.00;6.40;;;15.70;98.80;;;;;;5050449;28;20436;-68
2023/06/25 00:49:42;;;;;;;8.13;7.27;;;15.60;98.00;;;;;;5050062;28;20474;-68
2023/06/25 00:52:12;;;;;;;7.30;6.70;;;15.60;98.50;;;;;;5049423;28;20463;-68
2023/06/25 00:54:42;;;;;;;9.40;6.33;;;15.50;99.80;;;;;;5037172;28;20477;-68
2023/06/25 00:57:11;;;;;;;8.30;7.50;;;15.50;98.90;;;;;;5050190;28;20534;-68
2023/06/25 00:59:41;;;;;;;7.93;7.03;;;15.50;98.90;;;;;;5050018;28;20444;-68
2023/06/25 01:02:18;;;;;;;7.77;7.07;;;15.50;99.90;;;;;;5049686;28;20486;-68
2023/06/25 01:04:57;;;;;;;8.17;7.37;;;15.50;99.40;;;;;;5048332;28;20661;-68
2023/06/25 01:07:27;;;;;;;8.23;7.37;;;15.40;99.90;;;;;;5049794;28;20454;-68
2023/06/25 01:09:56;;;;;;;8.67;7.77;;;15.50;99.30;;;;;;5049896;28;20446;-68
2023/06/25 01:12:24;;;;;;;8.23;7.53;;;15.40;99.90;;;;;;5048698;28;20456;-68
2023/06/25 01:14:52;;;;;;;8.07;7.27;;;15.40;99.90;;;;;;5049640;28;20896;-68
2023/06/25 01:17:22;;;;;;;8.83;7.93;;;15.40;99.70;;;;;;5049764;28;20445;-68
2023/06/25 01:19:50;;;;;;;8.17;7.37;;;15.40;99.90;;;;;;5049618;28;20537;-68
2023/06/25 01:22:18;;;;;;;8.40;7.60;;;15.40;99.90;;;;;;5047760;28;20921;-68
2023/06/25 01:24:49;;;;;;;9.57;7.90;;;15.40;99.90;;;;;;5038155;28;20446;-68
2023/06/25 01:27:17;;;;;;;7.63;6.97;;;15.40;99.90;;;;;;5049663;28;20973;-68
2023/06/25 01:29:48;;;;;;;9.83;7.20;;;15.40;99.90;;;;;;5049654;28;20818;-68
2023/06/25 01:32:16;;;;;;;7.93;7.23;;;15.20;99.90;;;;;;5049169;28;20538;-68
2023/06/25 01:34:45;;;;;;;9.00;7.30;;;15.10;99.90;;;;;;5049198;28;20515;-68
2023/06/25 01:37:17;;;;;;;8.13;7.43;;;15.20;99.90;;;;;;5049981;28;20832;-68
2023/06/25 01:39:49;;;;;;;7.37;6.70;;;15.20;99.90;;;;;;5049631;28;20445;-68
2023/06/25 01:42:17;;;;;;;9.03;8.13;;;15.30;99.90;;;;;;5049207;28;20467;-68
2023/06/25 01:44:45;;;;;;;9.97;8.97;;;15.30;99.90;;;;;;5049137;28;20443;-68
2023/06/25 01:47:13;;;;;;;8.83;8.13;;;15.30;99.90;;;;;;5050061;28;20492;-68
2023/06/25 01:49:41;;;;;;;8.30;7.50;;;15.10;99.90;;;;;;5049714;28;20449;-68
2023/06/25 01:52:10;;;;;;;8.10;7.30;;;15.10;99.90;;;;;;5049233;28;20470;-68
2023/06/25 01:54:38;;;;;;;8.90;8.10;;;15.10;99.90;;;;;;5037019;28;20479;-68
2023/06/25 01:57:08;;;;;;;8.60;7.80;;;15.00;99.90;;;;;;5050473;28;20517;-68
2023/06/25 01:59:36;;;;;;;8.83;7.43;;;14.90;99.90;;;;;;5050445;28;20874;-68
2023/06/25 02:02:04;;;;;;;8.63;7.83;;;14.80;99.90;;;;;;5050209;28;20465;-68
2023/06/25 02:04:32;;;;;;;8.60;7.63;;;14.80;99.90;;;;;;5049591;28;20454;-68
2023/06/25 02:07:00;;;;;;;8.70;7.90;;;14.60;99.90;;;;;;5050317;28;20472;-68
2023/06/25 02:09:28;;;;;;;9.93;9.00;;;14.60;99.90;;;;;;5050184;28;20499;-68
2023/06/25 02:11:56;;;;;;;9.70;8.80;;;14.60;99.90;;;;;;5050374;28;20453;-68
2023/06/25 02:14:25;;;;;;;9.13;8.23;;;14.50;99.90;;;;;;5049405;28;20440;-68
2023/06/25 02:16:53;;;;;;;9.63;8.47;;;14.50;99.90;;;;;;5052129;28;20476;-68
2023/06/25 02:19:21;;;;;;;9.27;8.30;;;14.60;99.90;;;;;;5053815;28;20448;-68
2023/06/25 02:21:49;;;;;;;8.93;7.90;;;14.50;99.90;;;;;;5053583;28;20468;-68
2023/06/25 02:24:18;;;;;;;8.93;8.03;;;14.50;99.90;;;;;;5042229;28;20445;-68
2023/06/25 02:26:46;;;;;;;9.30;8.40;;;14.50;99.90;;;;;;5050445;28;20485;-68
2023/06/25 02:29:14;;;;;;;10.37;9.17;;;14.50;99.90;;;;;;5052841;28;20449;-68
2023/06/25 02:31:43;;;;;;;9.13;8.23;;;14.40;99.90;;;;;;5052879;28;20446;-68
2023/06/25 02:34:11;;;;;;;9.90;8.90;;;14.40;99.90;;;;;;5051468;28;20470;-68
2023/06/25 02:36:39;;;;;;;9.77;8.77;;;14.30;99.90;;;;;;5052715;28;20473;-68
2023/06/25 02:39:07;;;;;;;9.40;7.80;;;14.40;99.90;;;;;;5052641;28;20505;-68
2023/06/25 02:41:35;;;;;;;8.60;7.80;;;14.40;99.90;;;;;;5035070;28;21062;-68
2023/06/25 02:44:04;;;;;;;9.03;8.13;;;14.40;99.90;;;;;;5031431;28;20469;-68
2023/06/25 02:46:31;;;;;;;9.00;8.10;;;14.40;99.90;;;;;;5032770;28;20455;-68
2023/06/25 02:49:01;;;;;;;9.00;8.17;;;14.30;99.90;;;;;;5032416;28;20444;-68
2023/06/25 02:51:29;;;;;;;10.80;9.10;;;14.30;99.90;;;;;;5032273;28;20475;-67
2023/06/25 02:53:57;;;;;;;8.93;8.03;;;14.30;99.90;;;;;;5038826;28;20484;-67
2023/06/25 02:56:25;;;;;;;8.97;8.10;;;14.10;99.90;;;;;;5046761;28;20476;-68
2023/06/25 02:58:53;;;;;;;10.20;9.20;;;14.10;99.90;;;;;;5052569;28;20439;-68
2023/06/25 03:01:21;;;;;;;11.07;9.13;;;14.10;99.90;;;;;;5052123;28;20447;-68
2023/06/25 03:03:49;;;;;;;9.90;7.87;;;14.00;99.90;;;;;;5051195;28;20464;-68
2023/06/25 03:06:18;;;;;;;9.00;8.20;;;13.90;99.90;;;;;;5052351;28;21076;-68
2023/06/25 03:08:46;;;;;;;10.60;9.70;;;14.00;99.90;;;;;;5052083;28;20486;-68
2023/06/25 03:11:15;;;;;;;9.77;8.80;;;14.00;99.90;;;;;;5052350;28;20444;-68
2023/06/25 03:13:43;;;;;;;8.63;7.83;;;14.10;99.90;;;;;;5051073;28;20455;-68
2023/06/25 03:16:11;;;;;;;9.20;8.40;;;14.00;99.90;;;;;;5052112;28;20472;-68
2023/06/25 03:18:39;;;;;;;10.00;9.00;;;14.10;99.90;;;;;;5052492;28;20815;-68
2023/06/25 03:21:07;;;;;;;9.40;8.50;;;14.10;99.90;;;;;;5052269;28;20896;-68
2023/06/25 03:23:36;;;;;;;10.77;9.00;;;14.10;99.90;;;;;;5046366;28;20479;-68
2023/06/25 03:26:04;;;;;;;10.63;9.50;;;14.10;99.90;;;;;;5044132;28;20482;-68
2023/06/25 03:28:32;;;;;;;9.77;8.77;;;14.10;99.90;;;;;;5051011;28;20494;-68
2023/06/25 03:31:01;;;;;;;9.63;8.73;;;14.10;99.90;;;;;;5051589;28;20447;-68
2023/06/25 03:33:29;;;;;;;10.47;9.17;;;14.10;99.90;;;;;;5050394;28;20467;-68
2023/06/25 03:35:57;;;;;;;9.60;8.70;;;14.00;99.90;;;;;;5051845;28;20478;-68
2023/06/25 03:38:25;;;;;;;10.23;9.30;;;14.00;99.90;;;;;;5051488;28;20526;-68
2023/06/25 03:40:54;;;;;;;10.17;8.50;;;14.00;99.90;;;;;;5051472;28;20494;-68
2023/06/25 03:43:22;;;;;;;9.53;8.40;;;14.00;99.90;;;;;;5050030;28;20471;-68
2023/06/25 03:45:50;;;;;;;10.50;9.10;;;14.00;99.90;;;;;;5051979;28;20840;-68
2023/06/25 03:48:18;;;;;;;9.17;8.37;;;14.10;99.90;;;;;;5051459;28;20873;-68
2023/06/25 03:50:47;;;;;;;8.70;7.87;;;14.00;99.90;;;;;;5053352;28;20455;-68
2023/06/25 03:53:16;;;;;;;9.73;8.73;;;14.10;99.90;;;;;;5045721;28;20550;-68
2023/06/25 03:55:44;;;;;;;8.97;8.00;;;14.00;99.90;;;;;;5042926;28;20468;-68
2023/06/25 03:58:14;;;;;;;10.13;9.17;;;14.10;99.90;;;;;;5051743;28;20476;-68
2023/06/25 04:00:42;;;;;;;9.47;8.50;;;14.10;99.90;;;;;;5051372;28;20448;-68
2023/06/25 04:03:10;;;;;;;9.73;8.83;;;14.10;99.90;;;;;;5049955;28;20468;-68
2023/06/25 04:05:38;;;;;;;9.20;8.23;;;14.00;99.90;;;;;;5051183;28;20830;-68
2023/06/25 04:08:06;;;;;;;9.33;8.53;;;14.00;99.90;;;;;;5051294;28;20454;-68
2023/06/25 04:10:34;;;;;;;9.37;8.47;;;14.10;99.90;;;;;;5050461;28;20447;-68
2023/06/25 04:13:02;;;;;;;10.07;9.17;;;14.10;99.90;;;;;;5050006;28;20475;-68
2023/06/25 04:15:32;;;;;;;9.00;8.20;;;14.10;99.90;;;;;;5050800;28;20451;-68
2023/06/25 04:18:00;;;;;;;9.87;8.97;;;14.30;99.90;;;;;;5050821;28;21031;-68
2023/06/25 04:20:28;;;;;;;9.40;8.40;;;14.30;99.90;;;;;;5050899;28;20551;-68
2023/06/25 04:22:56;;;;;;;9.60;8.40;;;14.40;99.90;;;;;;5044636;28;20842;-68
2023/06/25 04:25:24;;;;;;;8.93;8.20;;;14.40;99.90;;;;;;5042274;28;20553;-67
2023/06/25 04:27:54;;;;;;;10.03;9.03;;;14.40;99.90;;;;;;5050880;28;20802;-68
2023/06/25 04:30:22;;;;;;;8.67;7.90;;;14.50;99.90;;;;;;5050895;28;20438;-68
2023/06/25 04:32:52;;;;;;;8.80;7.90;;;14.70;99.90;;;;;;5049405;28;20467;-68
2023/06/25 04:35:20;;;;;;;9.97;8.97;;;14.80;99.90;;;;;;5050769;28;20525;-68
2023/06/25 04:37:48;;;;;;;8.93;8.03;;;14.90;99.90;;;;;;5050541;28;20851;-68
2023/06/25 04:40:16;;;;;;;9.83;8.83;;;14.80;99.90;;;;;;5050575;28;20479;-68
2023/06/25 04:42:44;;;;;;;9.00;8.30;;;14.90;99.90;;;;;;5049080;28;20496;-68
2023/06/25 04:45:12;;;;;;;9.20;8.20;;;14.90;99.90;;;;;;5050419;28;20448;-68
2023/06/25 04:47:40;;;;;;;8.70;7.90;;;15.00;99.90;;;;;;5050199;28;20991;-68
2023/06/25 04:50:11;;;;;;;9.10;8.30;;;15.20;99.90;;;;;;5050053;28;20923;-68
2023/06/25 04:52:39;;;;;;;9.60;8.70;;;15.30;99.90;;;;;;5044560;28;20880;-68
2023/06/25 04:55:08;;;;;;;8.90;8.10;;;15.30;99.90;;;;;;5037839;28;20602;-68
2023/06/25 04:57:36;;;;;;;9.47;8.57;;;15.40;99.90;;;;;;5030188;28;20572;-68
2023/06/25 05:00:05;;;;;;;9.27;8.47;;;15.60;99.90;;;;;;5030108;28;20858;-68
2023/06/25 05:02:33;;;;;;;9.93;8.93;;;15.60;99.90;;;;;;5028757;28;20468;-68
2023/06/25 05:05:01;;;;;;;10.43;8.20;;;15.60;99.90;;;;;;5030132;28;20529;-68
2023/06/25 05:07:30;;;;;;;10.17;9.07;;;15.60;99.90;;;;;;5030110;28;20965;-69
2023/06/25 05:09:58;;;;;;;9.83;8.93;;;15.70;99.90;;;;;;5029732;28;20448;-68
2023/06/25 05:12:26;;;;;;;10.47;9.47;;;15.70;99.90;;;;;;5028835;28;20507;-68
2023/06/25 05:14:54;;;;;;;9.93;9.07;;;15.90;99.90;;;;;;5029547;28;20827;-68
2023/06/25 05:17:22;;;;;;;9.40;8.60;;;16.00;99.90;;;;;;5029812;28;20493;-68
2023/06/25 05:19:51;;;;;;;8.43;7.53;;;16.10;99.90;;;;;;5029721;28;20959;-68
2023/06/25 05:22:19;;;;;;;10.20;9.17;;;16.10;99.90;;;;;;5029085;28;20945;-68
2023/06/25 05:24:48;;;;;;;10.00;9.00;;;16.20;99.90;;;;;;5037936;28;20448;-69
2023/06/25 05:27:16;;;;;;;9.83;8.80;;;16.30;99.90;;;;;;5049578;28;20435;-68
2023/06/25 05:29:44;;;;;;;9.67;8.70;;;16.40;99.90;;;;;;5049436;28;20519;-69
2023/06/25 05:32:12;;;;;;;9.90;9.00;;;16.60;99.90;;;;;;5049161;28;20555;-69
2023/06/25 05:34:40;;;;;;;9.83;8.93;;;16.90;99.90;;;;;;5048975;28;20432;-67
2023/06/25 05:37:08;;;;;;;10.27;9.27;;;17.00;99.90;;;;;;5049401;28;21055;-67
2023/06/25 05:39:36;;;;;;;10.27;9.20;;;17.20;99.00;;;;;;5049558;28;20436;-68
2023/06/25 05:42:06;;;;;;;10.80;9.80;;;17.30;99.10;;;;;;5048980;28;20486;-67
2023/06/25 05:44:34;;;;;;;9.57;8.47;;;17.40;99.00;;;;;;5048985;28;20519;-67
2023/06/25 05:47:02;;;;;;;8.83;7.93;;;17.40;99.50;;;;;;5049519;28;20987;-67
2023/06/25 05:49:30;;;;;;;8.90;7.90;;;17.40;99.60;;;;;;5049663;28;20424;-67
2023/06/25 05:51:58;;;;;;;8.20;7.50;;;17.50;98.60;;;;;;5052572;28;20497;-67
2023/06/25 05:54:26;;;;;;;8.70;7.90;;;17.60;98.00;;;;;;5041952;28;21038;-67
2023/06/25 05:56:54;;;;;;;8.40;7.70;;;17.80;96.50;;;;;;5052225;28;20463;-68
2023/06/25 05:59:24;;;;;;;8.13;7.43;;;17.80;97.10;;;;;;5054043;28;20444;-68
2023/06/25 06:01:52;;;;;;;8.00;7.30;;;18.00;95.70;;;;;;5053747;28;20813;-68
2023/06/25 06:04:20;;;;;;;8.07;7.27;;;18.10;94.90;;;;;;5052325;28;20562;-67
2023/06/25 06:06:48;;;;;;;7.77;7.07;;;18.20;93.80;;;;;;5053593;28;20448;-67
2023/06/25 06:09:16;;;;;;;8.37;7.57;;;18.30;93.60;;;;;;5052905;28;20456;-68
2023/06/25 06:11:44;;;;;;;8.20;6.83;;;18.40;94.60;;;;;;5053356;28;20466;-68
2023/06/25 06:14:12;;;;;;;7.57;6.93;;;18.50;94.60;;;;;;5052064;28;20539;-68
2023/06/25 06:16:42;;;;;;;8.27;7.47;;;18.50;94.20;;;;;;5053218;28;20444;-67
2023/06/25 06:19:10;;;;;;;7.20;6.60;;;18.50;93.50;;;;;;5053104;28;20479;-69
2023/06/25 06:21:38;;;;;;;9.10;7.40;;;18.60;92.90;;;;;;5052862;28;20450;-68
2023/06/25 06:24:06;;;;;;;7.83;7.03;;;18.70;92.50;;;;;;5043873;28;20536;-68
2023/06/25 06:26:36;;;;;;;7.20;6.60;;;18.70;94.70;;;;;;5048640;28;20523;-68
2023/06/25 06:29:04;;;;;;;8.17;7.00;;;18.80;92.60;;;;;;5053208;28;20435;-68
2023/06/25 06:31:32;;;;;;;7.87;7.07;;;18.90;93.10;;;;;;5052896;28;20444;-67
2023/06/25 06:34:02;;;;;;;7.40;6.80;;;19.10;90.70;;;;;;5051829;28;20456;-68
2023/06/25 06:36:30;;;;;;;8.23;7.43;;;19.40;89.60;;;;;;5052933;28;21142;-68
2023/06/25 06:38:57;;;;;;;7.87;7.17;;;19.70;89.40;;;;;;5052895;28;20479;-67
2023/06/25 06:41:26;;;;;;;7.73;7.00;;;19.90;88.40;;;;;;5052506;28;20502;-69
2023/06/25 06:43:53;;;;;;;7.40;6.80;;;20.00;87.70;;;;;;5051537;28;20555;-68
2023/06/25 06:46:22;;;;;;;8.50;7.70;;;19.90;89.40;;;;;;5052616;28;20451;-67
2023/06/25 06:48:50;;;;;;;8.30;7.50;;;20.20;87.10;;;;;;5052309;28;20497;-68
2023/06/25 06:51:19;;;;;;;8.43;7.20;;;20.30;86.20;;;;;;5052672;28;20436;-68
2023/06/25 06:53:47;;;;;;;8.40;7.70;;;20.60;84.70;;;;;;5045608;28;20618;-68
2023/06/25 06:56:15;;;;;;;7.90;7.20;;;20.70;84.10;;;;;;5045535;28;20436;-67
2023/06/25 06:58:43;;;;;;;8.20;7.27;;;20.80;83.00;;;;;;5052157;28;20490;-67
2023/06/25 07:01:11;;;;;;;8.83;7.47;;;20.80;78.60;;;;;;5052253;28;20440;-68
2023/06/25 07:03:39;;;;;;;7.80;7.10;;;20.90;80.30;;;;;;5050980;28;20468;-68
2023/06/25 07:06:07;;;;;;;7.43;6.60;;;21.00;79.70;;;;;;5052357;28;20455;-67
2023/06/25 07:08:37;;;;;;;7.37;6.70;;;21.10;79.90;;;;;;5052088;28;20436;-67
2023/06/25 07:11:05;;;;;;;8.17;7.47;;;21.20;77.10;;;;;;5051838;28;20535;-68
2023/06/25 07:13:33;;;;;;;9.27;8.20;;;21.40;73.90;;;;;;5050709;28;20513;-68
2023/06/25 07:16:01;;;;;;;7.37;6.67;;;21.60;72.20;;;;;;5051757;28;20444;-67
2023/06/25 07:18:29;;;;;;;7.90;7.20;;;21.70;71.60;;;;;;5051853;28;20529;-68
2023/06/25 07:20:57;;;;;;;8.00;7.30;;;22.10;68.70;;;;;;5067637;28;20435;-68
2023/06/25 07:23:25;;;;;;;8.20;7.40;;;22.20;70.80;;;;;;5055319;28;20547;-68
2023/06/25 07:25:54;;;;;;;8.10;7.40;;;22.40;69.90;;;;;;5043185;28;20471;-66
2023/06/25 07:28:22;;;;;;;7.90;7.30;;;22.50;65.50;;;;;;5051568;28;20863;-66
2023/06/25 07:30:50;;;;;;;9.23;8.47;;;22.60;64.50;;;;;;5051521;28;20475;-67
2023/06/25 07:33:18;;;;;;;8.57;7.77;;;22.70;59.60;;;;;;5034234;28;20471;-66
2023/06/25 07:35:46;;;;;;;8.60;7.80;;;22.80;62.40;;;;;;5039533;28;20449;-66
2023/06/25 07:38:14;;;;;;;9.07;8.20;;;23.00;58.90;;;;;;5030980;28;21045;-66
2023/06/25 07:40:42;;;;;;;9.53;8.73;;;23.20;58.60;;;;;;5031169;28;20453;-67
2023/06/25 07:43:12;;;;;;;9.90;9.10;;;23.40;58.40;;;;;;5029738;28;20542;-66
2023/06/25 07:45:40;;;;;;;9.40;8.50;;;23.50;56.90;;;;;;5031793;28;20437;-66
2023/06/25 07:48:09;;;;;;;10.00;9.10;;;23.70;55.20;;;;;;5031246;28;20445;-66
2023/06/25 07:50:37;;;;;;;9.80;8.90;;;23.80;55.20;;;;;;5031387;28;20449;-67
2023/06/25 07:53:05;;;;;;;9.83;8.93;;;23.90;54.00;;;;;;5032164;28;20478;-67
2023/06/25 07:55:40;;;;;;;9.93;9.03;;;24.10;52.70;;;;;;5044710;28;20433;-67
2023/06/25 07:58:30;;;;;;;9.07;8.37;;;24.20;52.50;;;;;;5033178;28;20476;-65
2023/06/25 08:00:58;;;;;;;9.32;8.52;;;24.30;54.70;;;;;;5030224;28;20965;-67
2023/06/25 08:03:26;;;;;;;9.00;8.30;;;24.40;54.10;;;;;;5029809;28;20726;-66
2023/06/25 08:05:55;;;;;;;9.00;8.20;;;24.50;54.60;;;;;;5030585;28;20445;-66
2023/06/25 08:08:23;;;;;;;11.03;8.10;;;24.60;54.20;;;;;;5030974;28;20437;-67
2023/06/25 08:10:51;;;;;;;8.27;7.53;;;24.80;54.30;;;;;;5030667;28;20449;-67
2023/06/25 08:13:21;;;;;;;9.57;8.67;;;24.90;55.20;;;;;;5029280;28;20477;-67
2023/06/25 08:15:50;;;;;;;8.63;7.90;;;25.00;50.70;;;;;;5030705;28;20441;-67
2023/06/25 08:18:18;;;;;;;9.90;9.00;;;25.10;51.50;;;;;;5030577;28;20480;-67
2023/06/25 08:20:47;;;;;;;10.20;8.77;;;25.10;52.50;;;;;;5030683;28;20446;-65
2023/06/25 08:23:15;;;;;;;10.27;9.37;;;25.10;50.10;;;;;;5033478;28;20459;-66
2023/06/25 08:25:43;;;;;;;9.37;8.43;;;25.10;50.50;;;;;;5031177;28;20452;-64
2023/06/25 08:28:11;;;;;;;9.60;8.60;;;25.30;50.30;;;;;;5041384;28;20540;-67
2023/06/25 08:30:40;;;;;;;9.83;8.93;;;25.40;51.90;;;;;;5030940;28;21029;-68
2023/06/25 08:33:09;;;;;;;9.50;8.60;;;25.60;50.60;;;;;;5029685;28;20469;-67
2023/06/25 08:35:37;;;;;;;9.37;8.50;;;25.70;49.70;;;;;;5031309;28;20835;-67
2023/06/25 08:38:06;;;;;;;10.23;9.33;;;25.90;46.80;;;;;;5030528;28;20477;-70
2023/06/25 08:40:36;;;;;;;9.50;8.70;;;26.10;47.40;;;;;;5029926;28;20543;-68
2023/06/25 08:43:04;;;;;;;10.40;9.50;;;26.10;48.30;;;;;;5028720;28;20498;-67
2023/06/25 08:45:32;;;;;;;9.30;8.50;;;26.30;47.10;;;;;;5030030;28;21052;-67
2023/06/25 08:48:03;;;;;;;10.30;9.40;;;26.40;46.20;;;;;;5030292;28;20951;-67
2023/06/25 08:50:34;;;;;;;9.90;9.00;;;26.50;46.20;;;;;;5026227;28;20448;-67
2023/06/25 08:53:03;;;;;;;10.30;9.40;;;26.60;45.60;;;;;;5031282;28;21268;-67
2023/06/25 08:55:31;;;;;;;9.83;8.93;;;26.70;40.70;;;;;;5030199;28;20448;-67
2023/06/25 08:57:59;;;;;;;9.83;9.03;;;26.70;41.40;;;;;;5041164;28;20500;-68
2023/06/25 09:00:27;;;;;;;8.77;7.97;;;26.90;42.40;;;;;;5030045;28;20899;-69
2023/06/25 09:02:55;;;;;;;8.03;7.33;;;27.00;41.80;;;;;;5029044;28;20571;-67
2023/06/25 09:05:25;;;;;;;8.70;7.80;;;27.20;43.40;;;;;;5046548;28;20528;-66
2023/06/25 09:07:55;;;;;;;9.20;8.27;;;27.20;41.50;;;;;;5030168;28;21052;-64
2023/06/25 09:10:23;;;;;;;8.13;7.37;;;27.30;41.50;;;;;;5029983;28;20445;-64
2023/06/25 09:12:52;;;;;;;9.67;8.77;;;27.40;41.60;;;;;;5029108;28;20465;-69
2023/06/25 09:15:21;;;;;;;8.30;7.60;;;27.50;40.30;;;;;;5029006;28;20441;-66
2023/06/25 09:17:54;;;;;;;9.07;7.73;;;27.60;38.70;;;;;;5028744;28;20494;-66
2023/06/25 09:20:23;;;;;;;8.70;8.00;;;27.80;39.40;;;;;;5029389;28;20487;-66
2023/06/25 09:22:51;;;;;;;9.20;8.40;;;27.80;39.90;;;;;;5029912;28;20497;-66
2023/06/25 09:25:27;;;;;;;10.43;9.43;;;28.00;39.50;;;;;;5039136;28;20531;-66
2023/06/25 09:27:57;;;;;;;9.53;8.70;;;28.10;37.80;;;;;;5049707;28;20462;-66
2023/06/25 09:30:25;;;;;;;8.30;7.60;;;28.30;38.00;;;;;;5049531;28;20450;-66
2023/06/25 09:32:55;;;;;;;11.00;8.20;;;28.40;38.00;;;;;;5048583;28;21013;-68
2023/06/25 09:35:28;;;;;;;7.43;6.83;;;28.50;38.40;;;;;;5049838;28;20825;-69
2023/06/25 09:37:57;;;;;;;7.90;7.20;;;28.60;36.80;;;;;;5049848;28;20436;-66
2023/06/25 09:40:26;;;;;;;8.47;7.70;;;28.70;35.70;;;;;;5050513;28;20490;-66
2023/06/25 09:42:56;;;;;;;8.27;7.57;;;28.80;36.80;;;;;;5049412;28;20456;-67
2023/06/25 09:45:26;;;;;;;8.90;8.20;;;28.90;36.00;;;;;;5050156;28;20476;-66
2023/06/25 09:47:56;;;;;;;8.90;8.20;;;28.80;34.80;;;;;;5049098;28;20416;-66
2023/06/25 09:50:27;;;;;;;8.67;7.77;;;28.90;34.40;;;;;;5049240;28;20534;-70
2023/06/25 09:52:57;;;;;;;8.40;7.60;;;28.80;35.30;;;;;;5030246;28;20914;-67
2023/06/25 09:55:29;;;;;;;9.07;8.27;;;28.90;34.80;;;;;;5036230;28;20441;-66
2023/06/25 09:57:58;;;;;;;9.40;8.40;;;29.00;35.60;;;;;;5033159;28;20453;-67
2023/06/25 10:00:27;;;;;;;9.10;8.40;;;29.30;35.90;;;;;;5036659;28;20476;-70
2023/06/25 10:02:55;;;;;;;8.40;7.70;;;29.70;34.40;;;;;;5037662;28;20515;-67
2023/06/25 10:05:25;;;;;;;9.90;9.00;;;30.20;35.00;;;;;;5036652;28;20951;-67
2023/06/25 10:07:53;;;;;;;8.80;8.00;;;30.90;31.70;;;;;;5037096;28;20826;-67
2023/06/25 10:10:22;;;;;;;9.63;8.90;;;31.50;33.90;;;;;;5039007;28;20437;-68
2023/06/25 10:12:53;;;;;;;9.53;8.73;;;31.80;30.10;;;;;;5029529;28;20476;-67
2023/06/25 10:15:29;;;;;;;9.93;9.13;;;32.20;32.00;;;;;;5031183;28;20519;-66
2023/06/25 10:17:59;;;;;;;9.80;8.90;;;32.80;31.10;;;;;;5037965;28;20440;-72
2023/06/25 10:20:30;;;;;;;9.70;8.90;;;32.70;28.70;;;;;;5024338;28;20472;-71
2023/06/25 10:23:08;;;;;;;9.53;8.80;;;32.60;29.80;;;;;;5028865;28;20464;-71
2023/06/25 10:25:38;;;;;;;8.57;7.93;;;32.70;29.90;;;;;;5029799;28;20465;-71
2023/06/25 10:28:12;;;;;;;9.43;8.63;;;33.00;29.30;;;;;;5039002;28;20445;-71
2023/06/25 10:30:41;;;;;;;9.43;8.73;;;33.50;29.40;;;;;;5036399;28;20454;-71
2023/06/25 10:33:09;;;;;;;8.50;7.80;;;33.90;29.20;;;;;;5034952;28;20464;-71
2023/06/25 10:35:40;;;;;;;8.50;7.90;;;34.00;28.40;;;;;;5029772;28;20857;-70
2023/06/25 10:38:08;;;;;;;8.80;8.10;;;34.30;27.90;;;;;;5034997;28;20436;-70
2023/06/25 10:40:39;;;;;;;8.90;8.23;;;34.40;29.50;;;;;;5034345;28;21005;-71
2023/06/25 10:43:08;;;;;;;8.13;7.53;;;34.90;29.20;;;;;;5035799;28;20460;-70
2023/06/25 10:45:37;;;;;;;8.43;7.83;;;35.00;28.90;;;;;;5030151;28;20441;-70
2023/06/25 10:48:08;;;;;;;8.83;8.20;;;35.30;27.40;;;;;;5029694;28;20787;-69
2023/06/25 10:50:37;;;;;;;7.97;7.37;;;35.30;27.40;;;;;;5029916;28;20971;-69
2023/06/25 10:53:10;;;;;;;8.83;8.13;;;35.20;27.10;;;;;;5032151;28;20517;-70
2023/06/25 10:55:38;;;;;;;9.07;8.00;;;35.30;26.50;;;;;;5030512;28;21748;-71
2023/06/25 10:58:06;;;;;;;8.50;7.90;;;35.50;25.70;;;;;;5041508;28;20465;-71
2023/06/25 11:00:34;;;;;;;8.00;7.50;;;35.50;29.30;;;;;;5031378;28;20481;-71
2023/06/25 11:03:04;;;;;;;7.50;7.00;;;35.40;27.60;;;;;;5028595;28;20852;-70
2023/06/25 11:05:34;;;;;;;7.63;7.13;;;35.60;27.40;;;;;;5029341;28;20491;-70
2023/06/25 11:08:05;;;;;;;8.30;7.70;;;35.90;28.00;;;;;;5034851;28;20441;-70
2023/06/25 11:10:34;;;;;;;7.97;7.33;;;36.40;26.70;;;;;;5034331;28;20439;-71
2023/06/25 11:13:02;;;;;;;8.30;7.70;;;36.60;26.00;;;;;;5038841;28;20464;-71
2023/06/25 11:15:32;;;;;;;8.77;8.10;;;36.40;26.60;;;;;;5038892;28;20445;-72
2023/06/25 11:18:01;;;;;;;8.87;8.17;;;36.30;25.20;;;;;;5036789;28;20447;-70
2023/06/25 11:20:32;;;;;;;7.73;7.20;;;36.00;25.30;;;;;;5040560;28;20476;-71
2023/06/25 11:23:01;;;;;;;8.50;7.90;;;36.00;25.90;;;;;;5036810;28;20464;-72
2023/06/25 11:25:31;;;;;;;8.70;8.00;;;35.90;27.30;;;;;;5034709;28;20441;-71
2023/06/25 11:28:03;;;;;;;8.90;8.30;;;36.30;26.70;;;;;;5037284;28;20440;-71
2023/06/25 11:30:31;;;;;;;8.43;7.93;;;36.50;26.00;;;;;;5036300;28;20463;-71
2023/06/25 11:33:10;;;;;;;8.53;7.93;;;36.70;23.20;;;;;;5028887;28;20842;-70
2023/06/25 11:35:40;;;;;;;8.70;8.10;;;35.80;23.50;;;;;;5037603;28;20437;-70
2023/06/25 11:38:09;;;;;;;8.00;7.40;;;35.50;24.40;;;;;;5036687;28;20435;-71
2023/06/25 11:40:39;;;;;;;8.47;7.73;;;35.80;27.00;;;;;;5037075;28;21095;-71
2023/06/25 11:43:08;;;;;;;7.83;7.23;;;36.50;25.70;;;;;;5036621;28;20490;-71
2023/06/25 11:45:41;;;;;;;7.90;7.30;;;37.00;25.90;;;;;;5036407;28;20547;-72
2023/06/25 11:48:14;;;;;;;8.00;7.40;;;37.40;25.20;;;;;;5036962;28;20448;-71
2023/06/25 11:50:44;;;;;;;8.03;7.43;;;37.60;24.50;;;;;;5033654;28;20437;-71
2023/06/25 11:53:13;;;;;;;8.10;7.50;;;37.70;23.70;;;;;;5032298;28;20469;-73
2023/06/25 11:55:42;;;;;;;8.10;7.50;;;38.00;25.80;;;;;;5035074;28;20527;-72
2023/06/25 11:58:11;;;;;;;8.37;7.67;;;38.40;25.90;;;;;;5035524;28;20455;-72
2023/06/25 12:00:39;;;;;;;8.20;7.40;;;38.80;24.20;;;;;;5034913;28;20472;-73
2023/06/25 12:03:11;;;;;;;7.30;6.73;;;38.90;24.00;;;;;;5030927;28;20500;-72
2023/06/25 12:05:40;;;;;;;7.77;7.17;;;39.00;25.20;;;;;;5032027;28;20448;-71
2023/06/25 12:08:09;;;;;;;6.80;6.30;;;39.10;24.70;;;;;;5029211;28;20443;-72
2023/06/25 12:10:37;;;;;;;7.70;7.10;;;39.20;24.30;;;;;;5037499;28;20444;-70
2023/06/25 12:13:05;;;;;;;8.50;7.80;;;39.40;24.60;;;;;;5041369;28;20460;-67
2023/06/25 12:15:33;;;;;;;6.80;6.20;;;39.40;23.60;;;;;;5034431;28;20507;-67
2023/06/25 12:18:02;;;;;;;7.20;6.70;;;39.30;23.50;;;;;;5040113;28;20535;-68
2023/06/25 12:20:30;;;;;;;7.33;6.83;;;39.40;22.90;;;;;;5037393;28;20886;-68
2023/06/25 12:22:58;;;;;;;7.27;6.67;;;39.70;21.80;;;;;;5039115;28;20464;-67
2023/06/25 12:25:29;;;;;;;7.10;6.60;;;39.90;23.00;;;;;;5033882;28;20467;-68
2023/06/25 12:27:57;;;;;;;7.70;7.10;;;39.90;20.30;;;;;;5036995;28;20833;-68
2023/06/25 12:30:25;;;;;;;7.63;7.13;;;39.50;22.70;;;;;;5028599;28;21033;-68
2023/06/25 12:32:53;;;;;;;7.67;7.07;;;39.40;23.50;;;;;;5027544;28;20534;-68
2023/06/25 12:35:24;;;;;;;8.00;7.30;;;39.60;22.80;;;;;;5033545;28;20445;-68
2023/06/25 12:37:52;;;;;;;7.50;7.00;;;39.80;22.20;;;;;;5039710;28;21089;-68
2023/06/25 12:40:20;;;;;;;9.00;8.10;;;40.00;21.30;;;;;;5036060;28;20534;-67
2023/06/25 12:42:50;;;;;;;7.20;6.70;;;39.70;22.20;;;;;;5026285;28;20579;-68
2023/06/25 12:45:18;;;;;;;9.17;8.47;;;39.30;21.10;;;;;;5024721;28;20445;-68
2023/06/25 12:47:46;;;;;;;8.00;7.40;;;38.30;21.00;;;;;;5040995;28;20445;-68
2023/06/25 12:50:15;;;;;;;9.80;9.00;;;38.10;22.90;;;;;;5031979;28;20441;-67
2023/06/25 12:52:44;;;;;;;8.20;7.60;;;38.60;23.20;;;;;;5027184;28;20928;-67
2023/06/25 12:55:12;;;;;;;8.40;7.80;;;39.20;24.00;;;;;;5029805;28;20818;-67